createdAt,value
2023-11-24T00:02:04.903Z,1.17
2023-11-24T00:04:33.126Z,3.45
2023-11-24T00:07:01.038Z,1.58
2023-11-24T00:09:30.793Z,1.55
2023-11-24T00:12:00.261Z,1.73
2023-11-24T00:14:30.726Z,1.77
2023-11-24T00:16:58.970Z,1.63
2023-11-24T00:19:27.634Z,1.77
2023-11-24T00:21:56.864Z,2.15
2023-11-24T00:24:25.723Z,2.47
2023-11-24T00:26:53.898Z,2.10
2023-11-24T00:29:22.896Z,1.83
2023-11-24T00:31:50.907Z,2.00
2023-11-24T00:34:19.807Z,1.48
2023-11-24T00:36:48.267Z,1.90
2023-11-24T00:39:16.509Z,2.05
2023-11-24T00:41:45.216Z,2.22
2023-11-24T00:44:13.901Z,2.03
2023-11-24T00:46:43.894Z,2.42
2023-11-24T00:49:12.160Z,1.42
2023-11-24T00:51:40.754Z,2.40
2023-11-24T00:54:11.535Z,1.70
2023-11-24T00:56:39.982Z,1.80
2023-11-24T00:59:08.532Z,1.38
2023-11-24T01:01:36.558Z,1.98
2023-11-24T01:04:06.834Z,1.67
2023-11-24T01:06:34.956Z,1.80
2023-11-24T01:09:02.896Z,1.45
2023-11-24T01:11:31.075Z,0.90
2023-11-24T01:13:59.930Z,1.70
2023-11-24T01:16:28.223Z,1.80
2023-11-24T01:18:57.640Z,1.95
2023-11-24T01:21:26.684Z,1.40
2023-11-24T01:23:54.641Z,1.58
2023-11-24T01:26:22.777Z,1.40
2023-11-24T01:28:50.884Z,1.48
2023-11-24T01:31:18.770Z,1.55
2023-11-24T01:33:46.738Z,0.90
2023-11-24T01:36:14.989Z,1.20
2023-11-24T01:38:42.914Z,1.25
2023-11-24T01:41:10.900Z,1.15
2023-11-24T01:43:39.131Z,1.52
2023-11-24T01:46:07.369Z,1.58
2023-11-24T01:48:37.643Z,1.90
2023-11-24T01:51:08.123Z,1.90
2023-11-24T01:53:37.349Z,1.48
2023-11-24T01:56:06.143Z,1.50
2023-11-24T01:58:35.858Z,2.35
2023-11-24T02:01:03.780Z,1.90
2023-11-24T02:03:32.445Z,1.60
2023-11-24T02:06:00.739Z,1.52
2023-11-24T02:08:29.164Z,1.70
2023-11-24T02:10:57.648Z,1.77
2023-11-24T02:13:30.440Z,1.95
2023-11-24T02:15:59.359Z,1.20
2023-11-24T02:18:27.485Z,1.63
2023-11-24T02:20:55.637Z,1.75
2023-11-24T02:23:23.731Z,1.77
2023-11-24T02:25:51.988Z,1.98
2023-11-24T02:28:19.940Z,1.67
2023-11-24T02:30:49.992Z,1.92
2023-11-24T02:33:21.182Z,1.52
2023-11-24T02:35:50.041Z,1.77
2023-11-24T02:38:19.534Z,1.52
2023-11-24T02:40:48.762Z,1.65
2023-11-24T02:43:17.722Z,1.90
2023-11-24T02:45:46.072Z,2.55
2023-11-24T02:48:14.411Z,4.13
2023-11-24T02:50:42.863Z,2.97
2023-11-24T02:53:11.167Z,3.53
2023-11-24T02:55:39.186Z,2.60
2023-11-24T02:58:07.100Z,3.58
2023-11-24T03:00:37.889Z,3.25
2023-11-24T03:03:06.935Z,3.28
2023-11-24T03:05:35.664Z,2.33
2023-11-24T03:08:04.536Z,2.13
2023-11-24T03:10:32.754Z,2.78
2023-11-24T03:13:01.996Z,2.40
2023-11-24T03:15:30.444Z,3.78
2023-11-24T03:17:58.859Z,4.32
2023-11-24T03:20:27.152Z,2.08
2023-11-24T03:22:57.611Z,2.15
2023-11-24T03:25:26.465Z,3.63
2023-11-24T03:27:56.727Z,1.90
2023-11-24T03:30:26.242Z,3.13
2023-11-24T03:32:55.613Z,3.30
2023-11-24T03:35:24.141Z,3.22
2023-11-24T03:37:52.692Z,3.17
2023-11-24T03:40:20.684Z,2.95
2023-11-24T03:42:48.590Z,2.67
2023-11-24T03:45:17.139Z,3.40
2023-11-24T03:47:45.168Z,5.13
2023-11-24T03:50:15.070Z,2.65
2023-11-24T03:52:43.086Z,4.20
2023-11-24T03:55:13.877Z,4.65
2023-11-24T03:57:45.599Z,3.08
2023-11-24T04:00:14.701Z,3.38
2023-11-24T04:02:43.120Z,2.92
2023-11-24T04:05:14.890Z,3.88
2023-11-24T04:07:42.823Z,3.40
2023-11-24T04:10:12.068Z,2.55
2023-11-24T04:12:40.468Z,3.92
2023-11-24T04:15:11.026Z,3.53
2023-11-24T04:17:39.453Z,3.00
2023-11-24T04:20:09.770Z,2.22
2023-11-24T04:22:39.210Z,2.83
2023-11-24T04:25:08.105Z,4.03
2023-11-24T04:27:37.257Z,3.10
2023-11-24T04:30:08.749Z,3.50
2023-11-24T04:32:37.049Z,2.22
2023-11-24T04:35:07.205Z,2.45
2023-11-24T04:37:35.125Z,3.08
2023-11-24T04:40:04.728Z,2.75
2023-11-24T04:42:33.361Z,2.10
2023-11-24T04:45:01.314Z,2.15
2023-11-24T04:47:29.313Z,2.83
2023-11-24T04:49:57.219Z,2.13
2023-11-24T04:52:25.187Z,2.33
2023-11-24T04:54:54.040Z,2.03
2023-11-24T04:57:22.539Z,2.88
2023-11-24T04:59:50.527Z,2.20
2023-11-24T05:02:18.689Z,2.83
2023-11-24T05:04:48.229Z,2.30
2023-11-24T05:07:19.297Z,2.42
2023-11-24T05:09:47.930Z,2.65
2023-11-24T05:12:16.529Z,2.13
2023-11-24T05:14:44.520Z,2.45
2023-11-24T05:17:13.797Z,3.08
2023-11-24T05:19:42.034Z,2.90
2023-11-24T05:22:10.105Z,2.72
2023-11-24T05:24:40.521Z,3.67
2023-11-24T05:27:08.867Z,3.35
2023-11-24T05:29:36.754Z,2.42
2023-11-24T05:32:07.204Z,2.58
2023-11-24T05:34:36.577Z,3.42
2023-11-24T05:37:07.449Z,2.17
2023-11-24T05:39:38.442Z,3.40
2023-11-24T05:42:09.516Z,2.55
2023-11-24T05:44:37.431Z,1.90
2023-11-24T05:47:06.404Z,4.85
2023-11-24T05:49:35.602Z,2.47
2023-11-24T05:52:04.006Z,1.90
2023-11-24T05:54:35.707Z,2.13
2023-11-24T05:57:04.030Z,1.48
2023-11-24T05:59:34.567Z,1.67
2023-11-24T06:02:04.641Z,1.88
2023-11-24T06:04:33.078Z,2.17
2023-11-24T06:07:01.297Z,1.60
2023-11-24T06:09:30.712Z,2.38
2023-11-24T06:11:59.191Z,2.13
2023-11-24T06:14:27.908Z,1.75
2023-11-24T06:16:57.245Z,1.73
2023-11-24T06:19:25.690Z,2.22
2023-11-24T06:21:53.918Z,1.45
2023-11-24T06:24:22.033Z,1.52
2023-11-24T06:26:49.980Z,1.70
2023-11-24T06:29:18.846Z,2.65
2023-11-24T06:31:46.847Z,1.63
2023-11-24T06:34:15.241Z,1.98
2023-11-24T06:36:43.851Z,1.75
2023-11-24T06:39:12.659Z,2.00
2023-11-24T06:41:40.507Z,1.80
2023-11-24T06:44:08.522Z,1.80
2023-11-24T06:46:37.522Z,1.70
2023-11-24T06:49:07.410Z,5.50
2023-11-24T06:51:35.480Z,2.83
2023-11-24T06:54:04.500Z,1.90
2023-11-24T06:56:32.802Z,2.03
2023-11-24T06:59:02.356Z,2.22
2023-11-24T07:01:33.799Z,2.15
2023-11-24T07:04:02.648Z,2.00
2023-11-24T07:06:32.323Z,2.15
2023-11-24T07:09:00.932Z,2.38
2023-11-24T07:11:28.952Z,2.30
2023-11-24T07:13:56.964Z,4.03
2023-11-24T07:16:25.291Z,3.20
2023-11-24T07:18:53.535Z,2.47
2023-11-24T07:21:22.520Z,3.03
2023-11-24T07:23:50.715Z,2.63
2023-11-24T07:26:20.489Z,1.60
2023-11-24T07:28:48.669Z,2.72
2023-11-24T07:31:18.988Z,2.22
2023-11-24T07:33:50.483Z,2.92
2023-11-24T07:36:21.057Z,2.30
2023-11-24T07:38:50.832Z,1.75
2023-11-24T07:41:18.926Z,1.80
2023-11-24T07:43:46.991Z,1.90
2023-11-24T07:46:15.304Z,2.22
2023-11-24T07:48:45.126Z,1.92
2023-11-24T07:51:13.092Z,2.60
2023-11-24T07:53:41.129Z,2.20
2023-11-24T07:56:09.344Z,2.53
2023-11-24T07:58:40.315Z,2.67
2023-11-24T08:01:09.828Z,2.00
2023-11-24T08:03:38.102Z,2.90
2023-11-24T08:06:09.180Z,2.03
2023-11-24T08:08:37.627Z,2.13
2023-11-24T08:11:07.941Z,2.20
2023-11-24T08:13:35.958Z,1.92
2023-11-24T08:16:04.811Z,2.28
2023-11-24T08:18:33.059Z,2.50
2023-11-24T08:21:03.370Z,2.08
2023-11-24T08:23:31.810Z,2.08
2023-11-24T08:26:01.641Z,2.33
2023-11-24T08:28:31.806Z,2.08
2023-11-24T08:31:00.009Z,1.77
2023-11-24T08:33:29.154Z,1.52
2023-11-24T08:35:58.832Z,1.60
2023-11-24T08:38:26.808Z,1.58
2023-11-24T08:40:56.727Z,2.45
2023-11-24T08:43:24.626Z,2.50
2023-11-24T08:45:53.897Z,1.30
2023-11-24T08:48:22.217Z,1.88
2023-11-24T08:50:50.602Z,1.83
2023-11-24T08:53:19.401Z,1.73
2023-11-24T08:55:48.399Z,1.50
2023-11-24T08:58:16.977Z,1.70
2023-11-24T09:00:46.844Z,2.25
2023-11-24T09:03:15.130Z,2.90
2023-11-24T09:05:44.564Z,1.88
2023-11-24T09:08:12.758Z,1.92
2023-11-24T09:10:40.717Z,2.65
2023-11-24T09:13:08.916Z,2.90
2023-11-24T09:15:36.854Z,2.05
2023-11-24T09:18:05.153Z,2.03
2023-11-24T09:20:33.454Z,2.67
2023-11-24T09:23:01.603Z,2.15
2023-11-24T09:25:29.780Z,1.85
2023-11-24T09:27:57.809Z,2.97
2023-11-24T09:30:25.882Z,1.90
2023-11-24T09:32:55.577Z,1.73
2023-11-24T09:35:27.177Z,1.50
2023-11-24T09:37:55.447Z,1.58
2023-11-24T09:40:25.177Z,2.20
2023-11-24T09:42:54.235Z,28.80
2023-11-24T09:45:25.748Z,28.02
2023-11-24T09:47:55.566Z,17.20
2023-11-24T09:50:28.450Z,5.90
2023-11-24T09:53:00.543Z,2.38
2023-11-24T09:55:30.148Z,13.63
2023-11-24T09:57:59.563Z,5.70
2023-11-24T10:00:28.981Z,4.82
2023-11-24T10:03:01.669Z,5.60
2023-11-24T10:05:32.076Z,10.82
2023-11-24T10:08:02.000Z,10.05
2023-11-24T10:10:31.881Z,6.32
2023-11-24T10:13:04.037Z,7.05
2023-11-24T10:15:35.987Z,4.38
2023-11-24T10:18:04.708Z,4.28
2023-11-24T10:20:33.811Z,5.00
2023-11-24T10:23:05.084Z,1.85
2023-11-24T10:25:35.541Z,1.92
2023-11-24T10:28:07.432Z,2.70
2023-11-24T10:30:36.131Z,2.25
2023-11-24T10:33:06.565Z,2.08
2023-11-24T10:35:34.950Z,1.40
2023-11-24T10:38:03.841Z,1.90
2023-11-24T10:40:33.776Z,2.53
2023-11-24T10:43:04.276Z,7.82
2023-11-24T10:45:36.082Z,1.65
2023-11-24T10:48:16.780Z,2.38
2023-11-24T10:50:57.905Z,0.70
2023-11-24T10:53:38.346Z,3.03
2023-11-24T10:56:10.653Z,1.20
2023-11-24T10:58:38.890Z,1.15
2023-11-24T11:01:08.268Z,1.23
2023-11-24T11:03:37.166Z,2.97
2023-11-24T11:06:34.830Z,1.75
2023-11-24T11:09:20.713Z,1.67
2023-11-24T11:12:14.985Z,1.50
2023-11-24T11:14:43.736Z,0.70
2023-11-24T11:17:21.261Z,3.60
2023-11-24T11:20:00.762Z,3.38
2023-11-24T11:22:37.623Z,1.35
2023-11-24T11:25:26.947Z,1.67
2023-11-24T11:27:56.644Z,1.30
2023-11-24T11:30:27.975Z,1.65
2023-11-24T11:33:23.670Z,0.93
2023-11-24T11:36:03.482Z,2.40
2023-11-24T11:38:45.325Z,1.92
2023-11-24T11:41:46.132Z,1.92
2023-11-24T11:44:35.558Z,1.90
2023-11-24T11:47:27.877Z,1.42
2023-11-24T11:49:59.267Z,1.48
2023-11-24T11:52:32.183Z,1.67
2023-11-24T11:57:33.969Z,1.63
2023-11-24T12:00:07.994Z,3.53
2023-11-24T12:02:36.404Z,1.63
2023-11-24T12:05:06.711Z,2.90
2023-11-24T12:07:37.654Z,2.35
2023-11-24T12:10:08.000Z,1.80
2023-11-24T12:12:36.190Z,3.33
2023-11-24T12:15:08.450Z,1.50
2023-11-24T12:17:37.353Z,1.67
2023-11-24T12:20:11.332Z,3.15
2023-11-24T12:22:41.156Z,2.20
2023-11-24T12:25:12.046Z,2.15
2023-11-24T12:27:40.372Z,2.88
2023-11-24T12:30:12.722Z,1.30
2023-11-24T12:32:42.801Z,1.83
2023-11-24T12:35:13.119Z,1.80
2023-11-24T12:37:44.625Z,1.50
2023-11-24T12:40:13.341Z,1.83
2023-11-24T12:42:47.655Z,1.90
2023-11-24T12:45:15.675Z,2.17
2023-11-24T12:47:43.698Z,3.45
2023-11-24T12:50:16.341Z,1.58
2023-11-24T12:52:47.471Z,3.10
2023-11-24T12:55:15.676Z,2.97
2023-11-24T12:57:44.867Z,2.10
2023-11-24T13:00:16.769Z,1.60
2023-11-24T13:02:47.053Z,1.38
2023-11-24T13:05:17.687Z,0.80
2023-11-24T13:07:46.184Z,0.90
2023-11-24T13:10:14.827Z,0.93
2023-11-24T13:12:46.607Z,1.20
2023-11-24T13:15:16.035Z,0.95
2023-11-24T13:17:46.710Z,2.20
2023-11-24T13:20:18.404Z,3.75
2023-11-24T13:22:46.581Z,1.75
2023-11-24T13:25:15.815Z,2.65
2023-11-24T13:27:48.745Z,1.48
2023-11-24T13:30:22.642Z,1.52
2023-11-24T13:32:51.719Z,1.77
2023-11-24T13:35:21.191Z,1.77
2023-11-24T13:37:51.035Z,2.28
2023-11-24T13:40:23.049Z,1.50
2023-11-24T13:42:56.249Z,1.88
2023-11-24T13:47:52.631Z,1.25
2023-11-24T13:50:21.072Z,1.80
2023-11-24T13:52:57.414Z,1.17
2023-11-24T13:55:34.731Z,0.98
2023-11-24T13:58:03.448Z,1.73
2023-11-24T14:00:32.278Z,1.00
2023-11-24T14:03:00.638Z,2.42
2023-11-24T14:05:29.007Z,3.80
2023-11-24T14:07:58.845Z,3.10
2023-11-24T14:10:28.446Z,5.15
2023-11-24T14:12:57.714Z,3.15
2023-11-24T14:15:25.674Z,3.25
2023-11-24T14:17:58.506Z,2.70
2023-11-24T14:20:26.966Z,5.13
2023-11-24T14:22:55.807Z,2.65
2023-11-24T14:25:24.056Z,2.17
2023-11-24T14:27:52.318Z,1.88
2023-11-24T14:30:20.376Z,2.15
2023-11-24T14:32:48.841Z,0.90
2023-11-24T14:35:17.115Z,1.08
2023-11-24T14:37:45.570Z,1.13
2023-11-24T14:40:20.642Z,0.50
2023-11-24T14:42:51.876Z,0.68
2023-11-24T14:45:22.238Z,1.77
2023-11-24T14:47:53.888Z,0.70
2023-11-24T14:50:27.205Z,1.00
2023-11-24T14:52:58.859Z,0.98
2023-11-24T14:55:29.773Z,1.15
2023-11-24T14:57:58.210Z,0.70
2023-11-24T15:00:34.265Z,1.02
2023-11-24T15:03:06.175Z,1.50
2023-11-24T15:05:35.537Z,0.90
2023-11-24T15:08:11.022Z,1.27
2023-11-24T15:10:44.220Z,0.93
2023-11-24T15:13:22.323Z,1.48
2023-11-24T15:15:51.245Z,1.20
2023-11-24T15:18:21.498Z,1.50
2023-11-24T15:20:54.692Z,1.60
2023-11-24T15:23:25.007Z,1.27
2023-11-24T15:25:54.133Z,1.70
2023-11-24T15:28:23.906Z,1.67
2023-11-24T15:30:53.582Z,5.45
2023-11-24T15:33:22.905Z,1.73
2023-11-24T15:35:53.245Z,1.40
2023-11-24T15:38:24.457Z,10.52
2023-11-24T15:40:54.263Z,1.75
2023-11-24T15:43:23.489Z,2.22
2023-11-24T15:45:56.923Z,2.45
2023-11-24T15:48:26.644Z,1.60
2023-11-24T15:50:56.815Z,1.67
2023-11-24T15:53:25.599Z,1.63
2023-11-24T15:55:54.501Z,1.80
2023-11-24T15:58:26.719Z,2.22
2023-11-24T16:00:57.909Z,1.90
2023-11-24T16:03:26.269Z,1.83
2023-11-24T16:05:55.956Z,1.88
2023-11-24T16:08:33.241Z,1.75
2023-11-24T16:11:12.272Z,1.95
2023-11-24T16:13:45.507Z,1.88
2023-11-24T16:16:14.875Z,2.42
2023-11-24T16:18:43.717Z,3.55
2023-11-24T16:21:12.027Z,3.17
2023-11-24T16:23:40.350Z,4.38
2023-11-24T16:26:08.327Z,2.10
2023-11-24T16:28:36.474Z,2.35
2023-11-24T16:31:06.097Z,2.75
2023-11-24T16:33:35.950Z,2.13
2023-11-24T16:36:05.042Z,2.08
2023-11-24T16:38:33.502Z,3.58
2023-11-24T16:41:04.685Z,6.13
2023-11-24T16:43:33.670Z,2.17
2023-11-24T16:46:02.163Z,6.55
2023-11-24T16:48:30.438Z,4.18
2023-11-24T16:50:58.846Z,3.80
2023-11-24T16:53:26.904Z,2.75
2023-11-24T16:55:55.055Z,3.33
2023-11-24T16:58:24.222Z,4.28
2023-11-24T17:00:52.408Z,2.67
2023-11-24T17:03:21.209Z,2.40
2023-11-24T17:05:49.375Z,2.05
2023-11-24T17:08:17.900Z,3.15
2023-11-24T17:10:46.643Z,1.75
2023-11-24T17:13:16.194Z,2.20
2023-11-24T17:15:46.707Z,2.38
2023-11-24T17:18:15.623Z,3.35
2023-11-24T17:20:46.589Z,1.85
2023-11-24T17:23:17.575Z,2.42
2023-11-24T17:25:46.664Z,1.80
2023-11-24T17:28:14.761Z,1.77
2023-11-24T17:30:42.672Z,2.28
2023-11-24T17:33:11.125Z,1.30
2023-11-24T17:35:39.267Z,1.15
2023-11-24T17:38:07.865Z,1.70
2023-11-24T17:40:35.853Z,1.58
2023-11-24T17:43:03.754Z,2.30
2023-11-24T17:45:31.977Z,1.60
2023-11-24T17:48:00.185Z,1.77
2023-11-24T17:50:30.002Z,1.80
2023-11-24T17:52:57.949Z,1.08
2023-11-24T17:55:26.769Z,1.10
2023-11-24T17:57:56.583Z,1.27
2023-11-24T18:00:29.587Z,0.90
2023-11-24T18:02:59.706Z,1.20
2023-11-24T18:05:28.033Z,1.45
2023-11-24T18:07:57.519Z,1.13
2023-11-24T18:10:25.599Z,1.25
2023-11-24T18:12:55.184Z,1.23
2023-11-24T18:15:26.993Z,0.98
2023-11-24T18:17:56.452Z,0.80
2023-11-24T18:20:26.490Z,0.80
2023-11-24T18:22:54.731Z,1.08
2023-11-24T18:25:22.704Z,1.10
2023-11-24T18:27:50.622Z,0.93
2023-11-24T18:30:19.159Z,1.63
2023-11-24T18:32:49.988Z,0.90
2023-11-24T18:35:19.405Z,0.85
2023-11-24T18:37:47.333Z,0.90
2023-11-24T18:40:15.651Z,1.30
2023-11-24T18:42:43.645Z,1.08
2023-11-24T18:45:14.637Z,1.00
2023-11-24T18:47:43.329Z,1.05
2023-11-24T18:50:12.412Z,1.02
2023-11-24T18:52:40.390Z,0.90
2023-11-24T18:55:09.184Z,1.17
2023-11-24T18:57:37.111Z,0.60
2023-11-24T19:00:06.937Z,1.23
2023-11-24T19:02:36.179Z,1.30
2023-11-24T19:05:07.023Z,0.90
2023-11-24T19:07:35.219Z,0.90
2023-11-24T19:10:03.354Z,1.10
2023-11-24T19:12:31.347Z,1.35
2023-11-24T19:14:59.279Z,0.90
2023-11-24T19:17:27.731Z,2.92
2023-11-24T19:19:55.851Z,1.10
2023-11-24T19:22:24.068Z,0.88
2023-11-24T19:24:52.324Z,0.68
2023-11-24T19:27:22.416Z,1.00
2023-11-24T19:29:50.646Z,1.02
2023-11-24T19:32:19.168Z,1.48
2023-11-24T19:34:48.955Z,1.77
2023-11-24T19:37:17.041Z,0.80
2023-11-24T19:39:46.472Z,1.05
2023-11-24T19:42:14.334Z,0.80
2023-11-24T19:44:42.769Z,2.20
2023-11-24T19:47:11.121Z,1.05
2023-11-24T19:49:40.195Z,1.25
2023-11-24T19:52:09.422Z,1.05
2023-11-24T19:54:37.335Z,0.90
2023-11-24T19:57:06.909Z,3.05
2023-11-24T19:59:34.908Z,1.27
2023-11-24T20:02:05.405Z,1.35
2023-11-24T20:04:34.094Z,0.70
2023-11-24T20:07:02.523Z,1.45
2023-11-24T20:09:30.519Z,0.85
2023-11-24T20:11:58.594Z,5.53
2023-11-24T20:14:26.645Z,1.80
2023-11-24T20:16:54.945Z,1.10
2023-11-24T20:19:22.938Z,0.90
2023-11-24T20:21:50.921Z,2.25
2023-11-24T20:24:18.873Z,0.80
2023-11-24T20:26:46.864Z,0.90
2023-11-24T20:29:15.861Z,1.42
2023-11-24T20:31:44.570Z,1.00
2023-11-24T20:34:12.728Z,0.68
2023-11-24T20:36:41.224Z,2.40
2023-11-24T20:39:09.706Z,0.82
2023-11-24T20:41:41.846Z,0.82
2023-11-24T20:44:11.119Z,0.95
2023-11-24T20:46:39.802Z,1.17
2023-11-24T20:49:08.032Z,1.25
2023-11-24T20:51:36.090Z,1.05
2023-11-24T20:54:04.592Z,1.00
2023-11-24T20:56:32.981Z,2.25
2023-11-24T20:59:01.015Z,0.77
2023-11-24T21:01:29.376Z,1.25
2023-11-24T21:03:58.258Z,1.52
2023-11-24T21:06:26.765Z,0.93
2023-11-24T21:09:00.564Z,0.75
2023-11-24T21:11:33.451Z,0.85
2023-11-24T21:14:01.511Z,0.90
2023-11-24T21:16:29.665Z,1.20
2023-11-24T21:18:57.672Z,0.98
2023-11-24T21:21:26.189Z,1.00
2023-11-24T21:23:54.221Z,1.33
2023-11-24T21:26:22.395Z,0.90
2023-11-24T21:28:51.805Z,0.93
2023-11-24T21:31:21.400Z,1.70
2023-11-24T21:33:50.114Z,1.55
2023-11-24T21:36:18.432Z,1.75
2023-11-24T21:38:46.340Z,1.33
2023-11-24T21:41:20.648Z,1.13
2023-11-24T21:43:50.970Z,1.30
2023-11-24T21:46:24.071Z,1.23
2023-11-24T21:51:20.884Z,2.10
2023-11-24T21:53:49.616Z,1.40
2023-11-24T21:56:30.359Z,1.13
2023-11-24T21:58:58.505Z,0.98
2023-11-24T22:01:27.330Z,1.25
2023-11-24T22:03:56.885Z,1.10
2023-11-24T22:06:29.538Z,1.42
2023-11-24T22:08:57.637Z,1.55
2023-11-24T22:11:25.885Z,1.13
2023-11-24T22:13:53.852Z,1.25
2023-11-24T22:16:22.909Z,1.08
2023-11-24T22:18:51.408Z,1.45
2023-11-24T22:21:19.919Z,0.73
2023-11-24T22:23:48.150Z,0.80
2023-11-24T22:26:24.225Z,1.15
2023-11-24T22:28:53.433Z,0.95
2023-11-24T22:31:21.831Z,1.38
2023-11-24T22:33:50.264Z,1.10
2023-11-24T22:36:22.959Z,1.15
2023-11-24T22:38:51.419Z,1.33
2023-11-24T22:41:25.146Z,1.20
2023-11-24T22:43:54.017Z,0.80
2023-11-24T22:46:27.154Z,1.15
2023-11-24T22:48:55.757Z,1.30
2023-11-24T22:51:28.453Z,1.30
2023-11-24T22:53:57.130Z,1.40
2023-11-24T22:56:28.621Z,1.33
2023-11-24T22:58:59.811Z,1.42
2023-11-24T23:01:30.152Z,0.80
2023-11-24T23:04:01.717Z,1.20
2023-11-24T23:06:30.445Z,2.08
2023-11-24T23:08:59.842Z,1.08
2023-11-24T23:11:30.208Z,1.65
2023-11-24T23:13:59.547Z,1.20
2023-11-24T23:16:28.365Z,1.13
2023-11-24T23:18:58.296Z,1.00
2023-11-24T23:21:26.682Z,1.67
2023-11-24T23:23:56.372Z,1.48
2023-11-24T23:26:24.610Z,0.85
2023-11-24T23:28:52.717Z,1.35
2023-11-24T23:31:22.211Z,1.17
2023-11-24T23:33:51.679Z,1.13
2023-11-24T23:36:20.050Z,1.40
2023-11-24T23:38:48.297Z,1.40
2023-11-24T23:41:17.601Z,1.15
2023-11-24T23:43:45.732Z,0.85
2023-11-24T23:46:13.799Z,0.88
2023-11-24T23:48:42.007Z,1.00
2023-11-24T23:51:10.227Z,1.30
2023-11-24T23:53:38.297Z,1.10
2023-11-24T23:56:07.111Z,1.23
2023-11-24T23:58:37.718Z,1.70
